createdAt,value
2018-07-28T08:28:42.618Z,985.78
2018-07-28T09:20:34.238Z,985.71
2018-07-28T09:21:31.718Z,985.63
2018-07-28T09:22:31.826Z,985.69
2018-07-28T09:23:31.711Z,985.79
2018-07-28T09:24:31.662Z,985.70
2018-07-28T09:25:31.754Z,985.71
2018-07-28T09:26:32.352Z,985.74
2018-07-28T09:27:31.801Z,985.77
2018-07-28T09:28:31.715Z,985.92
2018-07-28T09:29:36.255Z,985.97
2018-07-28T09:30:31.896Z,985.82
2018-07-28T09:31:31.859Z,985.89
2018-07-28T09:32:34.164Z,985.94
2018-07-28T09:35:25.596Z,985.75
2018-07-28T09:36:27.162Z,985.93
2018-07-28T09:37:27.365Z,985.59
2018-07-28T09:38:25.426Z,985.63
2018-07-28T09:39:28.384Z,985.62
2018-07-28T09:40:27.248Z,985.58
2018-07-28T09:41:28.243Z,985.63
2018-07-28T09:42:27.188Z,985.75
2018-07-28T09:43:27.142Z,985.69
2018-07-28T09:44:27.035Z,985.69
2018-07-28T09:45:27.065Z,985.76
2018-07-28T09:46:27.032Z,985.77
2018-07-28T09:47:26.996Z,985.84
2018-07-28T09:48:27.149Z,985.77
2018-07-28T09:49:25.732Z,985.77
2018-07-28T09:50:27.261Z,985.74
2018-07-28T09:51:27.661Z,985.84
2018-07-28T09:52:25.799Z,985.85
2018-07-28T09:54:15.730Z,985.87
2018-07-28T09:55:39.868Z,985.74
2018-07-28T09:56:16.806Z,985.91
2018-07-28T09:57:16.903Z,985.83
2018-07-28T09:58:16.930Z,985.79
2018-07-28T09:59:17.643Z,985.78
2018-07-28T10:00:18.150Z,985.79
2018-07-28T10:01:18.935Z,985.80
2018-07-28T10:02:51.539Z,985.72
2018-07-28T10:03:16.834Z,985.70
2018-07-28T10:04:18.476Z,985.70
2018-07-28T10:05:16.869Z,985.69
2018-07-28T10:06:16.606Z,985.74
2018-07-28T10:07:16.575Z,985.71
2018-07-28T10:08:16.603Z,985.73
2018-07-28T10:09:16.630Z,985.74
2018-07-28T10:10:16.570Z,985.78
2018-07-28T10:11:16.676Z,985.84
2018-07-28T10:12:17.544Z,985.90
2018-07-28T10:13:16.513Z,985.90
2018-07-28T10:14:16.520Z,985.99
2018-07-28T10:15:17.569Z,985.97
2018-07-28T10:16:17.081Z,985.95
2018-07-28T10:17:16.574Z,985.95
2018-07-28T10:18:14.921Z,985.97
2018-07-28T10:19:16.645Z,985.90
2018-07-28T10:20:16.595Z,985.97
2018-07-28T10:21:17.600Z,986.02
2018-07-28T10:22:16.842Z,986.05
2018-07-28T10:23:17.614Z,986.11
2018-07-28T10:24:14.846Z,986.17
2018-07-28T10:25:17.618Z,986.17
2018-07-28T10:26:16.841Z,986.27
2018-07-28T10:27:16.663Z,986.34
2018-07-28T10:28:16.744Z,986.37
2018-07-28T10:29:16.629Z,986.38
2018-07-28T10:30:16.906Z,986.16
2018-07-28T10:31:16.677Z,986.17
2018-07-28T10:32:16.710Z,986.22
2018-07-28T10:33:16.572Z,986.13
2018-07-28T10:34:16.903Z,986.19
2018-07-28T10:35:16.593Z,986.17
2018-07-28T10:36:16.853Z,986.10
2018-07-28T10:37:16.731Z,986.16
2018-07-28T10:38:15.710Z,986.19
2018-07-28T10:39:16.152Z,986.18
2018-07-28T10:40:16.108Z,986.25
2018-07-28T10:41:16.225Z,986.32
2018-07-28T10:42:16.162Z,986.52
2018-07-28T10:43:14.581Z,986.22
2018-07-28T10:44:16.559Z,986.24
2018-07-28T10:45:17.072Z,986.25
2018-07-28T10:46:15.539Z,986.27
2018-07-28T10:47:17.147Z,986.31
2018-07-28T10:48:17.022Z,986.32
2018-07-28T10:49:15.459Z,986.31
2018-07-28T10:50:16.124Z,986.30
2018-07-28T10:51:16.063Z,986.57
2018-07-28T10:52:16.005Z,986.40
2018-07-28T10:53:16.008Z,986.42
2018-07-28T10:54:17.007Z,986.44
2018-07-28T10:55:22.176Z,986.32
2018-07-28T10:56:16.248Z,986.26
2018-07-28T10:57:16.250Z,986.33
2018-07-28T10:58:16.627Z,986.42
2018-07-28T10:59:15.050Z,986.61
2018-07-28T11:00:17.059Z,986.43
2018-07-28T11:01:16.043Z,986.29
2018-07-28T11:02:16.092Z,986.27
2018-07-28T11:03:17.092Z,986.34
2018-07-28T11:04:16.042Z,986.29
2018-07-28T11:05:16.056Z,986.33
2018-07-28T11:06:16.073Z,986.37
2018-07-28T11:07:16.082Z,986.41
2018-07-28T11:08:16.044Z,986.38
2018-07-28T11:09:16.112Z,986.43
2018-07-28T11:10:14.201Z,986.30
2018-07-28T11:11:17.057Z,986.41
2018-07-28T11:12:16.047Z,986.35
2018-07-28T11:13:16.053Z,986.42
2018-07-28T11:14:17.213Z,986.37
2018-07-28T11:15:16.094Z,986.46
2018-07-28T11:16:16.087Z,986.52
2018-07-28T11:17:16.134Z,986.55
2018-07-28T11:18:16.055Z,986.45
2018-07-28T11:19:16.052Z,986.52
2018-07-28T11:20:17.154Z,986.49
2018-07-28T11:21:16.061Z,986.58
2018-07-28T11:22:15.089Z,986.59
2018-07-28T11:23:18.588Z,986.69
2018-07-28T11:24:14.138Z,986.72
2018-07-28T11:26:35.960Z,986.61
2018-07-28T11:27:36.698Z,986.60
2018-07-28T11:28:37.715Z,986.60
2018-07-28T11:29:35.959Z,986.54
2018-07-28T11:30:37.064Z,986.55
2018-07-28T11:31:36.351Z,986.63
2018-07-28T11:32:34.745Z,986.54
2018-07-28T11:33:37.499Z,986.56
2018-07-28T11:34:36.444Z,986.61
2018-07-28T11:35:34.635Z,986.58
2018-07-28T11:36:36.440Z,986.56
2018-07-28T11:37:36.430Z,986.59
2018-07-28T11:38:36.400Z,986.68
2018-07-28T11:39:36.402Z,986.65
2018-07-28T11:40:36.612Z,986.74
2018-07-28T11:43:31.105Z,986.81
2018-07-28T11:44:31.819Z,986.84
2018-07-28T11:45:33.328Z,986.72
2018-07-28T11:46:31.645Z,986.74
2018-07-28T11:47:31.703Z,986.80
2018-07-28T11:48:31.704Z,986.82
2018-07-28T11:49:31.637Z,986.81
2018-07-28T11:50:31.707Z,986.80
2018-07-28T11:51:31.655Z,986.86
2018-07-28T11:52:31.984Z,987.00
2018-07-28T11:53:31.704Z,986.88
2018-07-28T11:54:31.653Z,986.87
2018-07-28T11:55:29.972Z,987.05
2018-07-28T11:56:34.874Z,987.01
2018-07-28T11:57:31.665Z,986.97
2018-07-28T11:58:31.948Z,987.04
2018-07-28T11:59:31.828Z,987.02
2018-07-28T12:00:31.696Z,987.01
2018-07-28T12:01:32.781Z,986.98
2018-07-28T12:02:32.687Z,987.00
2018-07-28T12:03:31.892Z,986.89
2018-07-28T12:04:41.654Z,987.03
2018-07-28T12:05:30.154Z,986.96
2018-07-28T12:06:29.964Z,987.02
2018-07-28T12:07:31.065Z,987.02
2018-07-28T12:08:29.696Z,987.04
2018-07-28T12:09:31.148Z,987.06
2018-07-28T12:10:34.830Z,987.04
2018-07-28T12:11:33.709Z,987.03
2018-07-28T12:12:33.144Z,987.08
2018-07-28T12:13:31.412Z,986.99
2018-07-28T12:14:31.430Z,987.01
2018-07-28T12:15:31.184Z,987.06
2018-07-28T12:16:29.643Z,987.04
2018-07-28T12:17:35.273Z,987.01
2018-07-28T12:18:31.215Z,987.08
2018-07-28T12:19:31.205Z,987.12
2018-07-28T12:20:29.651Z,987.06
2018-07-28T12:21:31.164Z,987.21
2018-07-28T12:22:33.003Z,987.14
2018-07-28T12:23:29.573Z,987.24
2018-07-28T12:24:32.378Z,987.28
2018-07-28T12:25:31.272Z,987.27
2018-07-28T12:26:31.195Z,987.22
2018-07-28T12:27:31.192Z,987.29
2018-07-28T12:28:31.333Z,987.25
2018-07-28T12:29:31.250Z,987.26
2018-07-28T12:30:31.218Z,987.15
2018-07-28T12:31:31.206Z,987.22
2018-07-28T12:32:31.164Z,987.21
2018-07-28T12:33:31.187Z,987.19
2018-07-28T12:34:31.323Z,987.19
2018-07-28T12:35:32.243Z,987.27
2018-07-28T12:36:29.346Z,987.20
2018-07-28T12:37:31.278Z,987.24
2018-07-28T12:38:31.187Z,987.24
2018-07-28T12:39:31.220Z,987.21
2018-07-28T12:40:31.215Z,987.19
2018-07-28T12:41:31.167Z,987.27
2018-07-28T12:42:31.184Z,987.27
2018-07-28T12:43:31.183Z,987.31
2018-07-28T12:44:32.435Z,987.43
2018-07-28T12:45:32.744Z,987.46
2018-07-28T12:46:31.506Z,987.42
2018-07-28T12:47:31.235Z,987.39
2018-07-28T12:48:31.362Z,987.44
2018-07-28T12:49:31.268Z,987.49
2018-07-28T12:50:31.423Z,987.43
2018-07-28T12:51:31.211Z,987.45
2018-07-28T12:52:30.393Z,987.42
2018-07-28T12:53:31.223Z,987.46
2018-07-28T12:54:30.735Z,987.42
2018-07-28T12:55:31.066Z,987.42
2018-07-28T12:56:31.707Z,987.41
2018-07-28T12:57:30.808Z,987.38
2018-07-28T12:58:31.907Z,987.43
2018-07-28T12:59:30.919Z,987.51
2018-07-28T13:00:30.702Z,987.52
2018-07-28T13:01:31.846Z,987.46
2018-07-28T13:02:30.747Z,987.55
2018-07-28T13:03:29.889Z,987.56
2018-07-28T13:04:30.814Z,987.64
2018-07-28T13:05:30.908Z,987.61
2018-07-28T13:06:30.749Z,987.60
2018-07-28T13:07:30.678Z,987.69
2018-07-28T13:08:29.042Z,987.68
2018-07-28T13:09:31.053Z,987.73
2018-07-28T13:10:30.687Z,987.63
2018-07-28T13:11:30.691Z,987.65
2018-07-28T13:12:30.769Z,987.67
2018-07-28T13:13:30.802Z,987.73
2018-07-28T13:14:30.697Z,987.67
2018-07-28T13:15:30.755Z,987.72
2018-07-28T13:16:30.731Z,987.76
2018-07-28T13:17:30.753Z,987.78
2018-07-28T13:18:30.780Z,987.75
2018-07-28T13:19:31.224Z,987.76
2018-07-28T13:20:31.180Z,987.74
2018-07-28T13:21:31.039Z,987.77
2018-07-28T13:22:31.662Z,987.77
2018-07-28T13:23:31.721Z,987.80
2018-07-28T13:24:31.666Z,987.80
2018-07-28T13:25:31.683Z,987.73
2018-07-28T13:26:30.866Z,987.76
2018-07-28T13:27:40.691Z,987.70
2018-07-28T13:28:30.681Z,987.74
2018-07-28T13:29:30.762Z,987.70
2018-07-28T13:30:30.669Z,987.66
2018-07-28T13:31:30.703Z,987.69
2018-07-28T13:32:30.675Z,987.69
2018-07-28T13:33:30.671Z,987.66
2018-07-28T13:34:30.676Z,987.69
2018-07-28T13:35:30.699Z,987.64
2018-07-28T13:36:31.734Z,987.61
2018-07-28T13:37:30.721Z,987.66
2018-07-28T13:38:28.753Z,987.67
2018-07-28T13:39:30.704Z,987.65
2018-07-28T13:40:30.181Z,987.65
2018-07-28T13:41:30.232Z,987.70
2018-07-28T13:42:31.229Z,987.64
2018-07-28T13:43:30.185Z,987.61
2018-07-28T13:44:30.176Z,987.61
2018-07-28T13:45:35.614Z,987.69
2018-07-28T13:46:30.169Z,987.67
2018-07-28T13:47:30.163Z,987.69
2018-07-28T13:48:28.713Z,987.67
2018-07-28T13:49:31.338Z,987.73
2018-07-28T13:50:30.269Z,987.75
2018-07-28T13:51:30.192Z,987.65
2018-07-28T13:52:30.290Z,987.68
2018-07-28T13:53:30.399Z,987.63
2018-07-28T13:54:30.223Z,987.63
2018-07-28T13:55:30.361Z,987.64
2018-07-28T13:56:30.679Z,987.70
2018-07-28T13:57:28.707Z,987.67
2018-07-28T13:58:28.986Z,987.65
2018-07-28T13:59:30.328Z,987.67
2018-07-28T14:00:30.208Z,987.61
2018-07-28T14:01:31.403Z,987.63
2018-07-28T14:02:30.186Z,987.69
2018-07-28T14:03:30.181Z,987.73
2018-07-28T14:04:30.303Z,987.68
2018-07-28T14:05:30.223Z,987.72
2018-07-28T14:06:30.182Z,987.66
2018-07-28T14:08:44.795Z,987.65
2018-07-28T14:09:46.582Z,987.69
2018-07-28T14:10:47.447Z,987.57
2018-07-28T14:11:46.742Z,987.64
2018-07-28T14:12:47.451Z,987.65
2018-07-28T14:13:46.283Z,987.71
2018-07-28T14:14:46.465Z,987.76
2018-07-28T14:15:46.354Z,987.68
2018-07-28T14:16:46.406Z,987.76
2018-07-28T14:17:46.374Z,987.73
2018-07-28T14:18:46.475Z,987.72
2018-07-28T14:19:51.344Z,987.76
2018-07-28T14:20:48.297Z,987.80
2018-07-28T14:22:33.312Z,987.82
2018-07-28T15:24:21.115Z,987.60
2018-07-28T15:25:26.001Z,987.58
2018-07-28T15:26:23.569Z,987.56
2018-07-28T15:27:22.887Z,987.60
2018-07-28T15:28:22.957Z,987.58
2018-07-28T15:29:21.912Z,987.51
2018-07-28T15:30:22.037Z,987.53
2018-07-28T15:31:21.951Z,987.59
2018-07-28T15:32:20.029Z,987.60
2018-07-28T15:33:25.996Z,987.61
2018-07-28T15:34:21.540Z,987.56
2018-07-28T15:35:23.461Z,987.61
2018-07-28T15:36:23.153Z,987.62
2018-07-28T15:37:19.947Z,987.65
2018-07-28T15:39:34.191Z,987.77
2018-07-28T15:40:34.531Z,987.73
2018-07-28T15:41:34.683Z,987.71
2018-07-28T15:42:35.383Z,987.76
2018-07-28T15:43:41.244Z,987.78
2018-07-28T15:44:34.100Z,987.76
2018-07-28T15:49:54.553Z,987.66
2018-07-28T15:50:56.619Z,987.70
2018-07-28T15:56:16.418Z,987.68
2018-07-28T16:05:10.644Z,987.59
2018-07-28T16:06:16.938Z,987.59
2018-07-28T16:07:11.333Z,987.57
2018-07-28T16:08:11.927Z,987.51
2018-07-28T16:09:11.867Z,987.52
2018-07-28T16:10:12.041Z,987.53
2018-07-28T16:11:11.927Z,987.51
2018-07-28T16:12:12.250Z,987.46
2018-07-28T17:07:07.008Z,987.68
2018-07-28T17:08:06.292Z,987.74
2018-07-28T17:09:06.244Z,987.78
2018-07-28T17:10:06.397Z,987.76
2018-07-28T17:11:06.015Z,987.75
2018-07-28T17:12:07.099Z,987.77
2018-07-28T17:13:06.127Z,987.77
2018-07-28T17:14:07.261Z,987.81
2018-07-28T17:15:06.641Z,987.78
2018-07-28T17:17:24.925Z,987.86
2018-07-28T17:18:26.609Z,987.90
2018-07-28T17:19:26.943Z,987.95
2018-07-28T17:20:25.552Z,987.93
2018-07-28T17:22:45.258Z,987.97
2018-07-28T17:23:48.178Z,987.92
2018-07-28T17:24:53.841Z,987.91
2018-07-28T17:25:45.330Z,987.86
2018-07-28T17:26:45.869Z,987.88
2018-07-28T17:27:46.873Z,987.90
2018-07-28T17:28:45.564Z,987.91
2018-07-28T17:29:45.517Z,987.97
2018-07-28T17:32:01.404Z,988.05
2018-07-28T17:33:03.040Z,988.00
2018-07-28T17:35:24.302Z,988.02
2018-07-28T17:36:23.592Z,988.01
2018-07-28T17:37:23.170Z,988.03
2018-07-28T17:38:23.499Z,988.03
2018-07-28T17:39:32.728Z,988.02
2018-07-28T17:40:23.799Z,988.09
2018-07-28T17:41:23.722Z,988.09
2018-07-28T17:42:23.579Z,988.08
2018-07-28T17:43:23.525Z,988.18
2018-07-28T17:44:23.591Z,988.19
2018-07-28T17:45:24.528Z,988.17
2018-07-28T17:46:24.519Z,988.20
2018-07-28T17:47:24.523Z,988.21
2018-07-28T17:48:24.510Z,988.21
2018-07-28T17:49:23.593Z,988.23
2018-07-28T17:50:24.516Z,988.20
2018-07-28T17:51:23.610Z,988.22
2018-07-28T17:52:22.452Z,988.16
2018-07-28T17:53:24.724Z,988.13
2018-07-28T17:54:23.612Z,988.15
2018-07-28T17:55:23.592Z,988.18
2018-07-28T17:56:23.575Z,988.15
2018-07-28T17:57:23.565Z,988.16
2018-07-28T17:58:23.612Z,988.22
2018-07-28T17:59:23.636Z,988.20
2018-07-28T18:00:23.543Z,988.23
2018-07-28T18:01:23.541Z,988.27
2018-07-28T18:02:23.562Z,988.26
2018-07-28T18:03:23.604Z,988.29
2018-07-28T18:04:23.580Z,988.33
2018-07-28T18:05:21.676Z,988.31
2018-07-28T18:06:23.610Z,988.26
2018-07-28T18:07:23.533Z,988.33
2018-07-28T18:08:24.683Z,988.31
2018-07-28T18:09:45.702Z,988.35
2018-07-28T18:10:23.847Z,988.34
2018-07-28T18:11:24.588Z,988.37
2018-07-28T18:12:28.464Z,988.37
2018-07-28T19:57:08.754Z,989.18
2018-07-28T19:58:09.696Z,989.26
2018-07-28T19:59:08.414Z,989.26
2018-07-28T20:00:09.565Z,989.26
2018-07-28T20:01:09.428Z,989.31
2018-07-28T20:02:10.402Z,989.23
2018-07-28T20:03:09.354Z,989.28
2018-07-28T20:04:09.525Z,989.24
2018-07-28T20:05:09.284Z,989.28
